Time;durP1;ratioP1;P1;durP2;ratioP2;P2;SDS_P1;SDS_P2;PMS_P1;PMS_P2;Temp;Humidity;BMP_temperature;BMP_pressure;BME280_temperature;BME280_humidity;BME280_pressure;Samples;Min_cycle;Max_cycle;Signal;HPM_P1;HPM_P2
2023/05/16 00:00:52;;;;;;;3.40;3.20;;;;;;;;;;4960808;28;20492;-77
2023/05/16 00:03:23;;;;;;;2.97;2.60;;;;;;;;;;4963227;28;20054;-75
2023/05/16 00:05:50;;;;;;;3.00;2.80;;;;;;;;;;4960844;28;20042;-75
2023/05/16 00:08:18;;;;;;;2.30;2.20;;;;;;;;;;4959637;28;20109;-75
2023/05/16 00:10:45;;;;;;;3.13;2.92;;;;;;;;;;4962382;28;20058;-75
2023/05/16 00:13:13;;;;;;;2.38;2.28;;;;;;;;;;4965568;28;20050;-75
2023/05/16 00:15:43;;;;;;;4.53;3.28;;;;;;;;;;4961977;28;20496;-75
2023/05/16 00:18:15;;;;;;;3.70;3.40;;;;;;;;;;4969078;28;20075;-75
2023/05/16 00:20:49;;;;;;;2.90;2.70;;;;;;;;;;4968643;28;20039;-75
2023/05/16 00:23:16;;;;;;;3.63;3.30;;;;;;;;;;4965986;28;20457;-75
2023/05/16 00:25:45;;;;;;;3.25;3.05;;;;;;;;;;4964094;28;20042;-74
2023/05/16 00:28:13;;;;;;;3.40;3.20;;;;;;;;;;4963427;28;20393;-75
2023/05/16 00:30:41;;;;;;;3.20;3.00;;;;;;;;;;4961721;28;20055;-75
2023/05/16 00:33:08;;;;;;;3.03;2.83;;;;;;;;;;4959000;28;20078;-75
2023/05/16 00:35:35;;;;;;;3.35;3.15;;;;;;;;;;4954886;28;20604;-75
2023/05/16 00:38:06;;;;;;;3.45;3.25;;;;;;;;;;4963666;28;20055;-75
2023/05/16 00:40:34;;;;;;;3.42;3.22;;;;;;;;;;4962795;28;20050;-75
2023/05/16 00:43:01;;;;;;;3.83;3.53;;;;;;;;;;4962128;28;20073;-74
2023/05/16 00:45:29;;;;;;;3.80;3.50;;;;;;;;;;4962539;28;20046;-76
2023/05/16 00:47:56;;;;;;;3.70;3.40;;;;;;;;;;4945782;28;20113;-76
2023/05/16 00:50:24;;;;;;;2.90;2.70;;;;;;;;;;4958382;28;20133;-75
2023/05/16 00:52:52;;;;;;;3.53;3.22;;;;;;;;;;4956795;28;20125;-76
2023/05/16 00:55:20;;;;;;;3.95;3.65;;;;;;;;;;4960906;28;20053;-75
2023/05/16 00:57:48;;;;;;;3.53;3.22;;;;;;;;;;4958745;28;20294;-76
2023/05/16 01:00:18;;;;;;;3.63;3.33;;;;;;;;;;4964281;28;20038;-75
2023/05/16 01:02:46;;;;;;;3.78;3.45;;;;;;;;;;4948832;28;20516;-76
2023/05/16 01:05:14;;;;;;;3.33;3.13;;;;;;;;;;4959534;28;20070;-76
2023/05/16 01:07:42;;;;;;;4.20;3.80;;;;;;;;;;4941146;28;20051;-76
2023/05/16 01:10:10;;;;;;;3.92;3.63;;;;;;;;;;4938989;28;20065;-76
2023/05/16 01:12:57;;;;;;;3.70;3.40;;;;;;;;;;4966700;28;20054;-75
2023/05/16 01:15:36;;;;;;;3.58;3.22;;;;;;;;;;4946437;28;20145;-75
2023/05/16 01:18:27;;;;;;;3.67;3.38;;;;;;;;;;4962392;28;20581;-75
2023/05/16 01:21:03;;;;;;;3.45;3.25;;;;;;;;;;4961824;28;20058;-75
2023/05/16 01:23:37;;;;;;;3.25;2.95;;;;;;;;;;4945050;28;20496;-75
2023/05/16 01:26:18;;;;;;;3.33;3.03;;;;;;;;;;4965046;28;20552;-76
2023/05/16 01:28:46;;;;;;;3.90;3.07;;;;;;;;;;4962138;28;20035;-75
2023/05/16 01:31:15;;;;;;;3.72;3.42;;;;;;;;;;4962948;28;20134;-76
2023/05/16 01:33:44;;;;;;;3.20;3.00;;;;;;;;;;4963522;28;20057;-75
2023/05/16 01:36:25;;;;;;;3.05;2.85;;;;;;;;;;4940269;28;20050;-75
2023/05/16 01:39:05;;;;;;;3.60;3.00;;;;;;;;;;4964787;28;20058;-75
2023/05/16 01:41:48;;;;;;;3.70;3.40;;;;;;;;;;4952290;28;20121;-75
2023/05/16 01:44:18;;;;;;;3.90;3.60;;;;;;;;;;4963591;28;20580;-75
2023/05/16 01:46:47;;;;;;;2.97;2.78;;;;;;;;;;4968429;28;20067;-75
2023/05/16 01:49:34;;;;;;;3.63;3.33;;;;;;;;;;4948858;28;20054;-75
2023/05/16 01:52:05;;;;;;;4.63;4.22;;;;;;;;;;4969995;28;20054;-75
2023/05/16 01:54:35;;;;;;;5.25;4.40;;;;;;;;;;4944868;28;20553;-75
2023/05/16 01:57:03;;;;;;;3.90;3.60;;;;;;;;;;4965356;28;20584;-75
2023/05/16 01:59:31;;;;;;;4.25;3.85;;;;;;;;;;4987628;23;20035;-74
2023/05/16 02:01:59;;;;;;;4.68;4.28;;;;;;;;;;4947759;28;20042;-74
2023/05/16 02:04:26;;;;;;;4.55;4.15;;;;;;;;;;4972001;28;20050;-75
2023/05/16 02:06:54;;;;;;;4.18;3.78;;;;;;;;;;4959570;28;20043;-74
2023/05/16 02:09:21;;;;;;;3.70;3.38;;;;;;;;;;4969026;28;20563;-74
2023/05/16 02:11:49;;;;;;;3.90;3.58;;;;;;;;;;4969581;28;20046;-74
2023/05/16 02:14:16;;;;;;;4.45;4.05;;;;;;;;;;4967661;28;20477;-74
2023/05/16 02:16:44;;;;;;;4.57;4.18;;;;;;;;;;4968835;28;20488;-74
2023/05/16 02:19:12;;;;;;;4.57;4.18;;;;;;;;;;4994910;28;20066;-75
2023/05/16 02:21:39;;;;;;;4.63;4.20;;;;;;;;;;4988100;28;20486;-75
2023/05/16 02:24:06;;;;;;;4.15;3.80;;;;;;;;;;4968769;28;20405;-74
2023/05/16 02:26:34;;;;;;;3.75;3.35;;;;;;;;;;4975262;28;20138;-74
2023/05/16 02:29:02;;;;;;;3.70;3.40;;;;;;;;;;4982908;28;20043;-74
2023/05/16 02:31:30;;;;;;;4.43;4.03;;;;;;;;;;4993048;28;20053;-74
2023/05/16 02:34:00;;;;;;;3.58;3.28;;;;;;;;;;4994724;28;20050;-74
2023/05/16 02:36:27;;;;;;;3.97;3.67;;;;;;;;;;4984104;28;20153;-75
2023/05/16 02:38:55;;;;;;;3.70;3.40;;;;;;;;;;4962324;28;20049;-74
2023/05/16 02:41:22;;;;;;;3.83;3.53;;;;;;;;;;4963291;28;20050;-74
2023/05/16 02:43:50;;;;;;;3.05;2.85;;;;;;;;;;4980575;28;20038;-74
2023/05/16 02:46:20;;;;;;;4.32;3.92;;;;;;;;;;4986490;28;20054;-75
2023/05/16 02:48:48;;;;;;;3.63;3.33;;;;;;;;;;4968531;28;20552;-75
2023/05/16 02:51:17;;;;;;;3.88;3.58;;;;;;;;;;4967861;28;20701;-75
2023/05/16 02:53:44;;;;;;;3.70;3.40;;;;;;;;;;4993327;28;20082;-75
2023/05/16 02:56:13;;;;;;;4.43;4.03;;;;;;;;;;4969094;28;20905;-75
2023/05/16 02:58:41;;;;;;;4.30;4.00;;;;;;;;;;4971136;28;20255;-75
2023/05/16 03:01:08;;;;;;;4.05;3.75;;;;;;;;;;4984833;28;20050;-75
2023/05/16 03:03:36;;;;;;;3.90;3.60;;;;;;;;;;4974107;28;20042;-75
2023/05/16 03:06:04;;;;;;;3.83;3.53;;;;;;;;;;4975030;28;20050;-75
2023/05/16 03:08:32;;;;;;;4.65;4.25;;;;;;;;;;4967765;28;20048;-75
2023/05/16 03:11:00;;;;;;;4.13;3.75;;;;;;;;;;4980921;28;20042;-75
2023/05/16 03:13:28;;;;;;;3.85;3.55;;;;;;;;;;4984193;28;20061;-75
2023/05/16 03:15:58;;;;;;;3.60;3.30;;;;;;;;;;4985798;28;20144;-75
2023/05/16 03:18:26;;;;;;;3.30;3.10;;;;;;;;;;4968092;28;20052;-75
2023/05/16 03:20:53;;;;;;;2.65;2.45;;;;;;;;;;4984379;28;20465;-74
2023/05/16 03:23:23;;;;;;;3.38;3.17;;;;;;;;;;4968453;28;20077;-75
2023/05/16 03:25:50;;;;;;;3.28;3.08;;;;;;;;;;4981518;28;20050;-75
2023/05/16 03:28:20;;;;;;;3.53;3.33;;;;;;;;;;4987795;28;20130;-75
2023/05/16 03:30:48;;;;;;;3.20;3.00;;;;;;;;;;4977394;28;20424;-75
2023/05/16 03:33:15;;;;;;;3.78;3.47;;;;;;;;;;4981203;28;20112;-75
2023/05/16 03:35:43;;;;;;;4.07;3.67;;;;;;;;;;4988889;28;20073;-75
2023/05/16 03:38:11;;;;;;;4.15;3.85;;;;;;;;;;4984117;28;20051;-75
2023/05/16 03:40:38;;;;;;;3.85;3.55;;;;;;;;;;4979345;28;20035;-75
2023/05/16 03:43:06;;;;;;;4.15;3.85;;;;;;;;;;4969421;28;20192;-75
2023/05/16 03:45:33;;;;;;;4.70;4.20;;;;;;;;;;4985184;28;20046;-75
2023/05/16 03:48:00;;;;;;;3.63;3.40;;;;;;;;;;4982515;28;20489;-75
2023/05/16 03:50:28;;;;;;;3.25;3.05;;;;;;;;;;4990340;28;20058;-75
2023/05/16 03:52:55;;;;;;;3.50;3.20;;;;;;;;;;4985017;28;20443;-75
2023/05/16 03:55:22;;;;;;;3.45;3.25;;;;;;;;;;4990619;28;20053;-75
2023/05/16 03:57:51;;;;;;;3.28;3.08;;;;;;;;;;4977878;28;20455;-75
2023/05/16 04:00:18;;;;;;;3.58;3.38;;;;;;;;;;4977250;28;20075;-75
2023/05/16 04:02:46;;;;;;;3.80;3.50;;;;;;;;;;4976996;28;20229;-75
2023/05/16 04:05:13;;;;;;;3.50;3.30;;;;;;;;;;4985372;28;20042;-75
2023/05/16 04:07:41;;;;;;;3.08;2.88;;;;;;;;;;4985694;28;20047;-75
2023/05/16 04:10:08;;;;;;;3.50;3.30;;;;;;;;;;4984388;28;20116;-75
2023/05/16 04:12:36;;;;;;;3.17;2.97;;;;;;;;;;4982173;28;20054;-76
2023/05/16 04:15:04;;;;;;;3.40;3.20;;;;;;;;;;4978026;28;20385;-75
2023/05/16 04:17:32;;;;;;;2.95;2.75;;;;;;;;;;4980542;28;20146;-75
2023/05/16 04:19:59;;;;;;;3.45;3.20;;;;;;;;;;4975830;28;20043;-74
2023/05/16 04:22:27;;;;;;;3.30;3.10;;;;;;;;;;4980032;28;20085;-75
2023/05/16 04:24:55;;;;;;;3.63;3.33;;;;;;;;;;4983909;28;20412;-75
2023/05/16 04:27:23;;;;;;;3.63;3.42;;;;;;;;;;4979698;28;20046;-75
2023/05/16 04:29:50;;;;;;;3.75;3.50;;;;;;;;;;4984328;28;20101;-76
2023/05/16 04:32:18;;;;;;;3.20;3.00;;;;;;;;;;4984206;28;20042;-73
2023/05/16 04:34:53;;;;;;;3.90;3.60;;;;;;;;;;4986074;28;20512;-75
2023/05/16 04:37:23;;;;;;;4.28;3.88;;;;;;;;;;4977340;28;20042;-75
2023/05/16 04:39:54;;;;;;;4.07;3.77;;;;;;;;;;4963175;28;20050;-74
2023/05/16 04:42:23;;;;;;;3.85;3.60;;;;;;;;;;4977381;28;20453;-73
2023/05/16 04:44:50;;;;;;;3.22;3.03;;;;;;;;;;4980858;28;20511;-73
2023/05/16 04:47:17;;;;;;;3.42;3.22;;;;;;;;;;4981145;28;20720;-73
2023/05/16 04:49:45;;;;;;;3.70;3.40;;;;;;;;;;4974624;28;20138;-73
2023/05/16 04:52:12;;;;;;;3.38;3.17;;;;;;;;;;4979636;28;20050;-74
2023/05/16 04:54:40;;;;;;;3.15;2.95;;;;;;;;;;4977730;28;20528;-74
2023/05/16 04:57:07;;;;;;;3.10;2.90;;;;;;;;;;4978990;28;20136;-74
2023/05/16 04:59:35;;;;;;;3.20;3.00;;;;;;;;;;4971121;28;20046;-74
2023/05/16 05:02:03;;;;;;;3.78;3.47;;;;;;;;;;4974886;28;20061;-74
2023/05/16 05:04:30;;;;;;;3.47;3.22;;;;;;;;;;4976011;28;20045;-74
2023/05/16 05:06:58;;;;;;;3.15;2.95;;;;;;;;;;4977300;28;20743;-74
2023/05/16 05:09:26;;;;;;;3.38;3.17;;;;;;;;;;4975357;28;20045;-74
2023/05/16 05:11:53;;;;;;;4.03;3.70;;;;;;;;;;4976631;28;20069;-74
2023/05/16 05:14:21;;;;;;;3.90;3.60;;;;;;;;;;4980964;28;20053;-74
2023/05/16 05:16:48;;;;;;;3.80;3.50;;;;;;;;;;4976296;28;20038;-73
2023/05/16 05:19:16;;;;;;;3.60;3.30;;;;;;;;;;4980273;28;20532;-73
2023/05/16 05:21:44;;;;;;;3.33;3.13;;;;;;;;;;4977839;28;20517;-74
2023/05/16 05:24:11;;;;;;;3.47;3.28;;;;;;;;;;4977411;28;20052;-74
2023/05/16 05:26:38;;;;;;;3.42;3.22;;;;;;;;;;4975549;28;20062;-74
2023/05/16 05:29:06;;;;;;;3.67;3.47;;;;;;;;;;4973498;28;20125;-74
2023/05/16 05:31:34;;;;;;;3.33;3.13;;;;;;;;;;4972943;28;20901;-74
2023/05/16 05:34:02;;;;;;;3.10;2.90;;;;;;;;;;4979644;28;20070;-74
2023/05/16 05:36:30;;;;;;;3.13;2.92;;;;;;;;;;4975593;28;20105;-74
2023/05/16 05:38:57;;;;;;;3.50;3.20;;;;;;;;;;4971402;28;20050;-74
2023/05/16 05:41:25;;;;;;;3.30;3.05;;;;;;;;;;4975934;28;20080;-73
2023/05/16 05:43:53;;;;;;;3.65;3.42;;;;;;;;;;4981174;28;20081;-73
2023/05/16 05:46:20;;;;;;;3.63;3.40;;;;;;;;;;4974376;28;20046;-73
2023/05/16 05:48:48;;;;;;;2.72;2.63;;;;;;;;;;4981727;28;20049;-74
2023/05/16 05:51:16;;;;;;;4.93;3.58;;;;;;;;;;4959891;28;20046;-73
2023/05/16 05:53:43;;;;;;;3.33;3.13;;;;;;;;;;4976730;28;20058;-74
2023/05/16 05:56:11;;;;;;;3.40;3.20;;;;;;;;;;4975108;28;20169;-74
2023/05/16 05:58:40;;;;;;;3.50;3.30;;;;;;;;;;4977948;28;20080;-74
2023/05/16 06:01:12;;;;;;;3.40;3.20;;;;;;;;;;4977952;28;20169;-74
2023/05/16 06:03:41;;;;;;;3.92;3.63;;;;;;;;;;4969512;28;20041;-74
2023/05/16 06:06:09;;;;;;;3.35;3.15;;;;;;;;;;4976060;28;20334;-73
2023/05/16 06:08:37;;;;;;;3.45;3.20;;;;;;;;;;4962973;28;20073;-74
2023/05/16 06:11:04;;;;;;;4.30;3.90;;;;;;;;;;4983931;28;20061;-74
2023/05/16 06:13:31;;;;;;;3.65;3.35;;;;;;;;;;4984591;28;20053;-74
2023/05/16 06:15:59;;;;;;;4.15;3.88;;;;;;;;;;4980088;28;20066;-73
2023/05/16 06:18:26;;;;;;;3.53;3.33;;;;;;;;;;4984691;28;20141;-73
2023/05/16 06:20:54;;;;;;;3.50;3.30;;;;;;;;;;4986155;28;20046;-74
2023/05/16 06:23:22;;;;;;;4.75;4.10;;;;;;;;;;4983016;28;20129;-74
2023/05/16 06:25:50;;;;;;;3.70;3.40;;;;;;;;;;4981768;28;20051;-74
2023/05/16 06:28:17;;;;;;;3.42;3.22;;;;;;;;;;4981561;28;20391;-74
2023/05/16 06:30:46;;;;;;;3.28;3.08;;;;;;;;;;4973398;28;20532;-75
2023/05/16 06:33:14;;;;;;;3.58;3.30;;;;;;;;;;4981241;28;20116;-74
2023/05/16 06:35:42;;;;;;;3.47;3.15;;;;;;;;;;4975957;28;20492;-74
2023/05/16 06:38:09;;;;;;;3.67;3.38;;;;;;;;;;4984553;28;20065;-74
2023/05/16 06:40:37;;;;;;;3.97;3.67;;;;;;;;;;4985573;28;20406;-75
2023/05/16 06:43:04;;;;;;;3.72;3.53;;;;;;;;;;4964901;28;21656;-75
2023/05/16 06:45:32;;;;;;;4.70;4.30;;;;;;;;;;4984217;28;20053;-75
2023/05/16 06:47:59;;;;;;;5.10;4.70;;;;;;;;;;4970666;28;20329;-74
2023/05/16 06:50:26;;;;;;;4.40;4.10;;;;;;;;;;4984680;28;20050;-75
2023/05/16 06:52:54;;;;;;;4.20;3.78;;;;;;;;;;4983324;28;20050;-75
2023/05/16 06:55:22;;;;;;;4.53;4.10;;;;;;;;;;4982086;28;20073;-75
2023/05/16 06:57:51;;;;;;;4.53;4.13;;;;;;;;;;4975237;28;20559;-75
2023/05/16 07:00:20;;;;;;;4.15;3.85;;;;;;;;;;4980842;28;20564;-75
2023/05/16 07:02:49;;;;;;;4.70;4.30;;;;;;;;;;4986374;28;20097;-75
2023/05/16 07:05:24;;;;;;;4.78;4.38;;;;;;;;;;4977453;28;20555;-75
2023/05/16 07:07:54;;;;;;;4.53;4.22;;;;;;;;;;4989912;28;20051;-75
2023/05/16 07:10:23;;;;;;;5.03;4.63;;;;;;;;;;4977614;28;20066;-75
2023/05/16 07:12:51;;;;;;;5.13;4.68;;;;;;;;;;4970118;28;20070;-76
2023/05/16 07:15:18;;;;;;;4.60;4.30;;;;;;;;;;4969870;28;20097;-78
2023/05/16 07:17:46;;;;;;;4.82;4.43;;;;;;;;;;4982120;28;20093;-75
2023/05/16 07:20:13;;;;;;;5.82;5.32;;;;;;;;;;4980167;28;20051;-77
2023/05/16 07:22:41;;;;;;;5.40;4.90;;;;;;;;;;4975347;28;20461;-75
2023/05/16 07:25:11;;;;;;;5.60;5.10;;;;;;;;;;4982705;28;20572;-75
2023/05/16 07:27:43;;;;;;;5.63;5.20;;;;;;;;;;4965509;28;20109;-75
2023/05/16 07:30:12;;;;;;;6.25;5.75;;;;;;;;;;4982109;28;20146;-76
2023/05/16 07:32:40;;;;;;;5.65;5.22;;;;;;;;;;4982435;28;20053;-75
2023/05/16 07:35:08;;;;;;;5.68;5.18;;;;;;;;;;4980623;28;20073;-75
2023/05/16 07:37:36;;;;;;;5.75;5.30;;;;;;;;;;4979979;28;20105;-76
2023/05/16 07:40:03;;;;;;;7.07;6.47;;;;;;;;;;4991010;28;20137;-76
2023/05/16 07:42:35;;;;;;;6.05;5.53;;;;;;;;;;4989006;28;20211;-76
2023/05/16 07:45:10;;;;;;;5.78;5.35;;;;;;;;;;4965020;28;20042;-76
2023/05/16 07:47:47;;;;;;;6.15;5.60;;;;;;;;;;4978616;28;20318;-76
2023/05/16 07:50:19;;;;;;;6.32;5.75;;;;;;;;;;4984029;28;20080;-76
2023/05/16 07:52:49;;;;;;;6.40;5.80;;;;;;;;;;4970779;28;21543;-76
2023/05/16 07:55:16;;;;;;;6.30;5.72;;;;;;;;;;4983208;28;20064;-76
2023/05/16 07:57:44;;;;;;;5.93;5.25;;;;;;;;;;4965891;28;20050;-76
2023/05/16 08:00:11;;;;;;;5.93;5.45;;;;;;;;;;4982833;28;20125;-76
2023/05/16 08:02:39;;;;;;;6.70;6.10;;;;;;;;;;4982701;28;20038;-75
2023/05/16 08:05:07;;;;;;;6.70;6.20;;;;;;;;;;4982183;28;20039;-75
2023/05/16 08:07:35;;;;;;;5.40;4.95;;;;;;;;;;4985874;28;20404;-75
2023/05/16 08:10:02;;;;;;;5.30;4.90;;;;;;;;;;4983776;28;20148;-75
2023/05/16 08:12:29;;;;;;;5.55;5.10;;;;;;;;;;4982981;28;20046;-75
2023/05/16 08:14:57;;;;;;;5.00;4.60;;;;;;;;;;4986113;28;20054;-75
2023/05/16 08:17:25;;;;;;;5.95;5.45;;;;;;;;;;4985445;28;20054;-75
2023/05/16 08:19:53;;;;;;;5.38;4.88;;;;;;;;;;4985452;28;20053;-75
2023/05/16 08:22:21;;;;;;;4.70;4.30;;;;;;;;;;4984574;28;20575;-75
2023/05/16 08:24:49;;;;;;;5.75;5.25;;;;;;;;;;4985333;28;20093;-75
2023/05/16 08:27:16;;;;;;;4.35;4.05;;;;;;;;;;4985362;28;20125;-75
2023/05/16 08:29:44;;;;;;;5.70;5.30;;;;;;;;;;4985654;28;20049;-75
2023/05/16 08:32:11;;;;;;;6.70;6.15;;;;;;;;;;4984810;28;20050;-75
2023/05/16 08:34:38;;;;;;;6.88;5.63;;;;;;;;;;4985498;28;20042;-75
2023/05/16 08:37:06;;;;;;;4.70;4.40;;;;;;;;;;4984332;28;20050;-76
2023/05/16 08:39:33;;;;;;;5.28;4.88;;;;;;;;;;4984826;28;20057;-75
2023/05/16 08:42:01;;;;;;;5.30;4.90;;;;;;;;;;4984916;28;20062;-75
2023/05/16 08:44:28;;;;;;;5.00;4.60;;;;;;;;;;4985875;28;20054;-76
2023/05/16 08:46:56;;;;;;;4.30;4.00;;;;;;;;;;4985762;28;20078;-76
2023/05/16 08:49:26;;;;;;;4.75;4.25;;;;;;;;;;4985264;28;20056;-76
2023/05/16 08:51:57;;;;;;;5.22;4.82;;;;;;;;;;4985189;28;20046;-76
2023/05/16 08:54:31;;;;;;;5.45;5.05;;;;;;;;;;4978072;28;20042;-75
2023/05/16 08:57:01;;;;;;;5.20;4.75;;;;;;;;;;4967513;28;20046;-76
2023/05/16 08:59:29;;;;;;;4.03;3.72;;;;;;;;;;4983619;28;20047;-75
2023/05/16 09:01:56;;;;;;;4.70;4.40;;;;;;;;;;4983645;28;20042;-77
2023/05/16 09:04:24;;;;;;;3.90;3.60;;;;;;;;;;4983251;28;20484;-77
2023/05/16 09:06:52;;;;;;;5.05;4.65;;;;;;;;;;4983170;28;20394;-77
2023/05/16 09:09:19;;;;;;;4.57;4.28;;;;;;;;;;4983915;28;20081;-77
2023/05/16 09:11:47;;;;;;;4.20;3.80;;;;;;;;;;4984431;28;20069;-76
2023/05/16 09:14:14;;;;;;;3.75;3.55;;;;;;;;;;4984996;28;20238;-76
2023/05/16 09:16:42;;;;;;;3.60;3.30;;;;;;;;;;4983357;28;20080;-77
2023/05/16 09:19:12;;;;;;;4.28;4.00;;;;;;;;;;4984537;28;20050;-77
2023/05/16 09:21:39;;;;;;;4.10;3.90;;;;;;;;;;4983349;28;20074;-77
2023/05/16 09:24:08;;;;;;;3.85;3.55;;;;;;;;;;4984071;28;20046;-75
2023/05/16 09:26:36;;;;;;;4.47;4.18;;;;;;;;;;4976243;28;20053;-75
2023/05/16 09:29:13;;;;;;;3.78;3.47;;;;;;;;;;4984434;28;20042;-76
2023/05/16 09:31:40;;;;;;;3.47;3.28;;;;;;;;;;4987290;28;20471;-76
2023/05/16 09:34:10;;;;;;;4.00;3.70;;;;;;;;;;4987965;28;20096;-76
2023/05/16 09:36:38;;;;;;;4.10;3.80;;;;;;;;;;4987999;28;20077;-76
2023/05/16 09:39:11;;;;;;;4.13;3.83;;;;;;;;;;4980075;28;20549;-76
2023/05/16 09:41:41;;;;;;;4.28;3.97;;;;;;;;;;4981951;28;20062;-76
2023/05/16 09:44:08;;;;;;;3.85;3.65;;;;;;;;;;4980436;28;20209;-77
2023/05/16 09:46:37;;;;;;;3.65;3.35;;;;;;;;;;4988083;28;20743;-76
2023/05/16 09:49:05;;;;;;;3.10;2.90;;;;;;;;;;4988208;28;20456;-76
2023/05/16 09:51:33;;;;;;;3.03;2.83;;;;;;;;;;4979193;28;20070;-77
2023/05/16 09:54:00;;;;;;;2.92;2.83;;;;;;;;;;4988193;28;20405;-76
2023/05/16 09:56:29;;;;;;;2.95;2.75;;;;;;;;;;4986408;28;20042;-77
2023/05/16 09:58:57;;;;;;;2.83;2.72;;;;;;;;;;4986342;28;20077;-76
2023/05/16 10:01:24;;;;;;;3.65;3.42;;;;;;;;;;4986890;28;20050;-76
2023/05/16 10:03:52;;;;;;;3.80;3.58;;;;;;;;;;4986784;28;20129;-76
2023/05/16 10:06:20;;;;;;;3.60;3.40;;;;;;;;;;4986313;28;20109;-76
2023/05/16 10:08:48;;;;;;;3.33;3.10;;;;;;;;;;4987529;28;20137;-77
2023/05/16 10:11:16;;;;;;;3.33;3.13;;;;;;;;;;4968878;28;20420;-76
2023/05/16 10:13:49;;;;;;;3.50;3.30;;;;;;;;;;4983929;28;20512;-76
2023/05/16 10:16:18;;;;;;;3.63;3.33;;;;;;;;;;4985736;28;20081;-76
2023/05/16 10:18:45;;;;;;;2.67;2.58;;;;;;;;;;4982197;28;20417;-76
2023/05/16 10:21:15;;;;;;;2.30;2.20;;;;;;;;;;4979499;28;20050;-77
2023/05/16 10:23:43;;;;;;;2.55;2.35;;;;;;;;;;4988236;28;20128;-76
2023/05/16 10:26:13;;;;;;;2.58;2.47;;;;;;;;;;4980120;28;20171;-76
2023/05/16 10:28:41;;;;;;;2.60;2.50;;;;;;;;;;4977790;28;20396;-77
2023/05/16 10:31:10;;;;;;;2.83;2.67;;;;;;;;;;4986962;28;20539;-76
2023/05/16 10:33:38;;;;;;;2.70;2.50;;;;;;;;;;4987985;28;20053;-76
2023/05/16 10:36:07;;;;;;;2.90;2.70;;;;;;;;;;4979878;28;20058;-76
2023/05/16 10:38:35;;;;;;;2.80;2.70;;;;;;;;;;4986325;28;20125;-76
2023/05/16 10:41:03;;;;;;;2.63;2.42;;;;;;;;;;4984835;28;20038;-76
2023/05/16 10:43:32;;;;;;;3.90;3.17;;;;;;;;;;4975400;28;20089;-77
2023/05/16 10:46:02;;;;;;;3.83;3.40;;;;;;;;;;4977609;28;20571;-76
2023/05/16 10:48:31;;;;;;;2.90;2.72;;;;;;;;;;4982757;28;20097;-76
2023/05/16 10:50:58;;;;;;;3.42;3.22;;;;;;;;;;4985944;28;20078;-76
2023/05/16 10:53:33;;;;;;;4.22;3.22;;;;;;;;;;4985403;28;20050;-76
2023/05/16 10:56:00;;;;;;;2.83;2.70;;;;;;;;;;4986841;28;20056;-76
2023/05/16 10:58:34;;;;;;;2.65;2.50;;;;;;;;;;4979801;28;20129;-76
2023/05/16 11:01:18;;;;;;;2.25;2.15;;;;;;;;;;4985890;28;20046;-77
2023/05/16 11:03:58;;;;;;;3.08;2.88;;;;;;;;;;4985278;28;20062;-76
2023/05/16 11:06:27;;;;;;;2.80;2.70;;;;;;;;;;4984673;28;20058;-76
2023/05/16 11:09:09;;;;;;;2.70;2.60;;;;;;;;;;4985395;28;20465;-77
2023/05/16 11:11:40;;;;;;;3.75;3.30;;;;;;;;;;4977794;28;20046;-76
2023/05/16 11:14:08;;;;;;;3.20;3.00;;;;;;;;;;4985712;28;20058;-76
2023/05/16 11:16:38;;;;;;;3.30;3.10;;;;;;;;;;4979631;28;20655;-76
2023/05/16 11:19:06;;;;;;;2.70;2.60;;;;;;;;;;4985451;28;20050;-76
2023/05/16 11:21:52;;;;;;;3.03;2.83;;;;;;;;;;4984400;28;20050;-76
2023/05/16 11:24:29;;;;;;;3.00;2.80;;;;;;;;;;4976846;28;20519;-76
2023/05/16 11:27:00;;;;;;;2.75;2.55;;;;;;;;;;4979604;28;20395;-76
2023/05/16 11:29:29;;;;;;;3.58;3.28;;;;;;;;;;4978376;28;20449;-76
2023/05/16 11:32:00;;;;;;;3.25;2.97;;;;;;;;;;4986545;28;20195;-76
2023/05/16 11:34:29;;;;;;;3.03;2.83;;;;;;;;;;4991956;28;20145;-76
2023/05/16 11:36:59;;;;;;;3.15;2.95;;;;;;;;;;4973211;28;20093;-76
2023/05/16 11:39:26;;;;;;;2.90;2.80;;;;;;;;;;4984312;28;20064;-76
2023/05/16 11:41:54;;;;;;;4.30;4.00;;;;;;;;;;4982672;28;20531;-77
2023/05/16 11:44:21;;;;;;;4.55;4.25;;;;;;;;;;4975073;28;20137;-76
2023/05/16 11:46:49;;;;;;;4.47;4.07;;;;;;;;;;4974848;28;20038;-76
2023/05/16 11:49:17;;;;;;;3.63;3.42;;;;;;;;;;4984105;28;20592;-76
2023/05/16 11:51:44;;;;;;;4.50;4.07;;;;;;;;;;4986465;28;20126;-76
2023/05/16 11:54:12;;;;;;;3.15;2.95;;;;;;;;;;4993632;28;20049;-76
2023/05/16 11:56:40;;;;;;;2.72;2.53;;;;;;;;;;4978396;28;20501;-76
2023/05/16 11:59:08;;;;;;;3.83;2.53;;;;;;;;;;4985804;28;20050;-76
2023/05/16 12:01:37;;;;;;;2.95;2.80;;;;;;;;;;4965866;28;20069;-76
2023/05/16 12:04:11;;;;;;;3.83;3.58;;;;;;;;;;4981910;28;20050;-76
2023/05/16 12:06:39;;;;;;;5.07;3.65;;;;;;;;;;4978597;28;20072;-76
2023/05/16 12:09:09;;;;;;;3.85;3.65;;;;;;;;;;4978560;28;20043;-76
2023/05/16 12:11:37;;;;;;;4.13;3.83;;;;;;;;;;4975006;28;20334;-76
2023/05/16 12:14:08;;;;;;;3.08;2.88;;;;;;;;;;4981852;28;20358;-76
2023/05/16 12:16:37;;;;;;;6.82;6.22;;;;;;;;;;4978035;28;20073;-76
2023/05/16 12:19:05;;;;;;;5.00;4.60;;;;;;;;;;4985898;28;20050;-76
2023/05/16 12:21:34;;;;;;;4.85;4.45;;;;;;;;;;4981894;28;20051;-76
2023/05/16 12:24:01;;;;;;;4.60;4.20;;;;;;;;;;4989225;28;20058;-76
2023/05/16 12:26:30;;;;;;;3.55;3.35;;;;;;;;;;4978039;28;20047;-77
2023/05/16 12:29:01;;;;;;;3.88;3.40;;;;;;;;;;4980025;28;20098;-76
2023/05/16 12:31:30;;;;;;;3.70;3.50;;;;;;;;;;4984824;28;20055;-76
2023/05/16 12:33:59;;;;;;;3.20;3.00;;;;;;;;;;4986649;28;20294;-76
2023/05/16 12:36:36;;;;;;;2.53;2.42;;;;;;;;;;4984166;28;20145;-76
2023/05/16 12:39:08;;;;;;;2.47;2.38;;;;;;;;;;4971322;28;20187;-76
2023/05/16 12:41:42;;;;;;;3.13;2.92;;;;;;;;;;4973755;28;20050;-76
2023/05/16 12:44:18;;;;;;;3.85;3.55;;;;;;;;;;4967328;28;20046;-75
2023/05/16 12:46:53;;;;;;;3.80;3.50;;;;;;;;;;4966692;28;20138;-75
2023/05/16 12:49:21;;;;;;;3.85;3.50;;;;;;;;;;4983322;28;20042;-76
2023/05/16 12:51:53;;;;;;;4.35;4.05;;;;;;;;;;4985218;28;20081;-76
2023/05/16 12:54:21;;;;;;;4.22;3.83;;;;;;;;;;4977851;28;20521;-75
2023/05/16 12:56:49;;;;;;;5.20;4.00;;;;;;;;;;4988628;28;20062;-75
2023/05/16 12:59:18;;;;;;;4.40;4.07;;;;;;;;;;4974965;28;20054;-76
2023/05/16 13:01:46;;;;;;;5.00;4.60;;;;;;;;;;4977384;28;20050;-75
2023/05/16 13:04:17;;;;;;;4.15;3.85;;;;;;;;;;4985209;28;20548;-76
2023/05/16 13:06:46;;;;;;;4.82;4.53;;;;;;;;;;4973470;28;20050;-75
2023/05/16 13:09:26;;;;;;;4.65;4.22;;;;;;;;;;4987694;28;20057;-76
2023/05/16 13:11:57;;;;;;;;;;;;;;;;;;4990308;28;20073;-76
2023/05/16 13:14:25;;;;;;;4.65;4.35;;;;;;;;;;4990789;28;19925;-76
2023/05/16 13:16:53;;;;;;;4.53;4.13;;;;;;;;;;4984731;28;20070;-76
2023/05/16 13:19:26;;;;;;;5.22;4.82;;;;;;;;;;4973205;28;20054;-76
2023/05/16 13:21:53;;;;;;;4.75;4.40;;;;;;;;;;4988853;28;20051;-76
2023/05/16 13:24:21;;;;;;;5.45;5.00;;;;;;;;;;4989331;28;20086;-76
2023/05/16 13:26:48;;;;;;;5.40;5.00;;;;;;;;;;4989053;28;20061;-76
2023/05/16 13:29:15;;;;;;;5.95;5.55;;;;;;;;;;4989193;28;20055;-76
2023/05/16 13:31:43;;;;;;;6.50;6.00;;;;;;;;;;4984224;28;20576;-76
2023/05/16 13:34:11;;;;;;;5.18;4.88;;;;;;;;;;4971278;28;20058;-76
2023/05/16 13:36:38;;;;;;;4.97;4.60;;;;;;;;;;4987810;28;20582;-76
2023/05/16 13:39:20;;;;;;;4.47;4.18;;;;;;;;;;4988330;28;20060;-75
2023/05/16 13:41:48;;;;;;;4.70;4.40;;;;;;;;;;4988063;28;20203;-76
2023/05/16 13:44:16;;;;;;;4.93;4.53;;;;;;;;;;4988115;28;20053;-75
2023/05/16 13:46:44;;;;;;;4.15;3.85;;;;;;;;;;4987914;28;20065;-76
2023/05/16 13:49:11;;;;;;;4.05;3.75;;;;;;;;;;4980484;28;20129;-76
2023/05/16 13:51:39;;;;;;;5.38;4.93;;;;;;;;;;4987881;28;20058;-76
2023/05/16 13:54:06;;;;;;;4.82;4.50;;;;;;;;;;4988500;28;20046;-75
2023/05/16 13:56:33;;;;;;;4.20;3.85;;;;;;;;;;4988090;28;20058;-76
2023/05/16 13:59:01;;;;;;;5.38;5.00;;;;;;;;;;4988387;28;20047;-75
2023/05/16 14:01:33;;;;;;;4.40;4.10;;;;;;;;;;4982139;28;20066;-75
2023/05/16 14:04:01;;;;;;;4.57;4.28;;;;;;;;;;4993642;28;20089;-75
2023/05/16 14:06:28;;;;;;;4.53;4.22;;;;;;;;;;4982861;28;20042;-76
2023/05/16 14:08:57;;;;;;;4.35;4.00;;;;;;;;;;4980983;28;20050;-76
2023/05/16 14:11:26;;;;;;;4.35;4.05;;;;;;;;;;4978447;28;20050;-75
2023/05/16 14:13:56;;;;;;;4.60;4.20;;;;;;;;;;4974920;28;20074;-76
2023/05/16 14:16:23;;;;;;;4.22;4.03;;;;;;;;;;4985132;28;20057;-76
2023/05/16 14:18:51;;;;;;;3.83;3.63;;;;;;;;;;4987867;28;20085;-76
2023/05/16 14:21:18;;;;;;;4.55;4.28;;;;;;;;;;4987189;28;20064;-77
2023/05/16 14:23:46;;;;;;;5.35;4.85;;;;;;;;;;4987609;28;20504;-76
2023/05/16 14:26:14;;;;;;;4.50;4.20;;;;;;;;;;4987999;28;20046;-76
2023/05/16 14:28:41;;;;;;;4.22;3.97;;;;;;;;;;4988987;28;20101;-76
2023/05/16 14:31:09;;;;;;;4.07;3.65;;;;;;;;;;4970706;28;20053;-76
2023/05/16 14:33:37;;;;;;;4.47;3.85;;;;;;;;;;4978011;28;20057;-76
2023/05/16 14:36:07;;;;;;;3.50;3.30;;;;;;;;;;4975150;28;20405;-76
2023/05/16 14:38:35;;;;;;;3.80;3.55;;;;;;;;;;4987659;28;20136;-76
2023/05/16 14:41:04;;;;;;;3.60;3.40;;;;;;;;;;4987918;28;20061;-76
2023/05/16 14:43:31;;;;;;;3.70;3.50;;;;;;;;;;4971353;28;20113;-77
2023/05/16 14:46:01;;;;;;;3.53;3.33;;;;;;;;;;4987374;28;20050;-76
2023/05/16 14:48:30;;;;;;;3.60;3.40;;;;;;;;;;4981816;28;20053;-75
2023/05/16 14:50:57;;;;;;;3.55;3.35;;;;;;;;;;4977952;28;20121;-75
2023/05/16 14:53:25;;;;;;;3.47;3.28;;;;;;;;;;4975902;28;20125;-76